Wrangell Airport
PAWG : now visible

Airfield :











YOU CAN JOIN US ON...

 
LOGIN :

Register | Disclaimer

   EN    FR    IT 

 









Legend :    VFR   Marginal VFR   IFR   Intensive IFR   Very Intensive IFR
Visi :
Ceiling :
>= 8 km
>= 3000ft
5 to 8 km
1000 to 3000 ft
1500m to 5 km
500 to 1000 ft
800 to 1500m
200 to 500 ft
< 800m
< 200 ft
Symbols :   Thunderstorms  Fog  Heavy snow  Heavy precipitations  Wind > 20 kt







- Airport Elevation : 49 ft
- IATA code : WRG


PAWG - Wrangell

CURRENT METAR :
  • 211056Z AUTO 16007KT 6SM RA BR SCT036 BKN049 OVC070 14/13 A2956 RMK AO2 RAB0958 SLP011 P0006 T01440133 TSNO

EXPIRED METARs :
  • 210856Z AUTO 13009G15KT 6SM +RA BR FEW028 BKN036 OVC060 14/13 A2959 RMK AO2 SLP021 P0008 60034 T01440128 401500117 58011 TSNO

TAF PAWG
Valid from the 21 at 06:00 until the 22 at 06:00 UTC


210533Z 2106/2206 10015G25KT 6SM -RA BR SCT015 OVC035 WS020/17045KT
TEMPO 2107/2111 3SM RA BR BKN015
FM211100 12011G18KT 5SM -RA BR SCT008 OVC015
FM211600 14008KT P6SM -SHRA SCT008 BKN025 OVC040 AMD LTD TO CLD VIS AND WIND 2106/2115
No reported NOTAMs for that airfield.



MET'MAP, your aeronautical weather chart ! - Copyright ORBIFLY December 2007 - Disclaimer

ORBIFLY MET'MAP TEAM :

Programming & Development : Alexandra Zaïnal
Concept & Development : Baudouin d'Aumeries
Co-Development & Prog : Marc-Olivier Méhu
Technical & hardware support : Manuel Goepfert

Contact : metmap@orbifly.com




SOURCES & CREDITS :

   NOAA       Earth
Advisory